sensor_id;sensor_type;location;lat;lon;timestamp;pressure;altitude;pressure_sealevel;temperature;humidity
17615;BME280;8926;49.720;6.576;2023-02-02T00:00:50;100487.03;;;7.52;83.88
17615;BME280;8926;49.720;6.576;2023-02-02T00:03:15;100484.53;;;7.48;83.64
17615;BME280;8926;49.720;6.576;2023-02-02T00:05:46;100479.41;;;7.45;84.16
17615;BME280;8926;49.720;6.576;2023-02-02T00:08:12;100484.44;;;7.52;83.61
17615;BME280;8926;49.720;6.576;2023-02-02T00:10:37;100477.66;;;7.46;84.43
17615;BME280;8926;49.720;6.576;2023-02-02T00:13:02;100486.41;;;7.43;84.52
17615;BME280;8926;49.720;6.576;2023-02-02T00:15:28;100483.88;;;7.42;84.89
17615;BME280;8926;49.720;6.576;2023-02-02T00:17:53;100482.91;;;7.44;84.60
17615;BME280;8926;49.720;6.576;2023-02-02T00:20:18;100483.78;;;7.45;84.96
17615;BME280;8926;49.720;6.576;2023-02-02T00:22:44;100485.59;;;7.41;85.10
17615;BME280;8926;49.720;6.576;2023-02-02T00:25:09;100488.13;;;7.44;84.91
17615;BME280;8926;49.720;6.576;2023-02-02T00:27:34;100481.13;;;7.46;84.69
17615;BME280;8926;49.720;6.576;2023-02-02T00:30:00;100489.81;;;7.45;84.95
17615;BME280;8926;49.720;6.576;2023-02-02T00:32:25;100491.63;;;7.43;85.47
17615;BME280;8926;49.720;6.576;2023-02-02T00:34:50;100493.41;;;7.41;85.63
17615;BME280;8926;49.720;6.576;2023-02-02T00:37:15;100491.81;;;7.37;86.39
17615;BME280;8926;49.720;6.576;2023-02-02T00:39:41;100502.19;;;7.37;86.54
17615;BME280;8926;49.720;6.576;2023-02-02T00:42:10;100497.81;;;7.39;86.05
17615;BME280;8926;49.720;6.576;2023-02-02T00:44:35;100507.41;;;7.37;86.32
17615;BME280;8926;49.720;6.576;2023-02-02T00:47:19;100504.88;;;7.34;86.85
17615;BME280;8926;49.720;6.576;2023-02-02T00:49:44;100496.16;;;7.37;86.72
17615;BME280;8926;49.720;6.576;2023-02-02T00:52:10;100495.19;;;7.39;86.45
17615;BME280;8926;49.720;6.576;2023-02-02T00:54:35;100493.50;;;7.38;86.61
17615;BME280;8926;49.720;6.576;2023-02-02T00:57:01;100504.00;;;7.35;86.80
17615;BME280;8926;49.720;6.576;2023-02-02T00:59:26;100498.69;;;7.38;86.62
17615;BME280;8926;49.720;6.576;2023-02-02T01:01:51;100502.28;;;7.34;86.92
17615;BME280;8926;49.720;6.576;2023-02-02T01:04:16;100504.00;;;7.35;87.22
17615;BME280;8926;49.720;6.576;2023-02-02T01:06:42;100503.13;;;7.35;86.99
17615;BME280;8926;49.720;6.576;2023-02-02T01:09:07;100509.38;;;7.29;87.85
17615;BME280;8926;49.720;6.576;2023-02-02T01:11:32;100508.38;;;7.33;87.30
17615;BME280;8926;49.720;6.576;2023-02-02T01:13:58;100504.00;;;7.35;87.23
17615;BME280;8926;49.720;6.576;2023-02-02T01:16:23;100504.00;;;7.35;86.93
17615;BME280;8926;49.720;6.576;2023-02-02T01:18:49;100509.94;;;7.39;86.95
17615;BME280;8926;49.720;6.576;2023-02-02T01:21:15;100505.78;;;7.33;87.81
17615;BME280;8926;49.720;6.576;2023-02-02T01:23:40;100502.38;;;7.31;88.14
17615;BME280;8926;49.720;6.576;2023-02-02T01:26:09;100500.59;;;7.33;88.24
17615;BME280;8926;49.720;6.576;2023-02-02T01:28:35;100502.38;;;7.31;87.93
17615;BME280;8926;49.720;6.576;2023-02-02T01:31:12;100500.69;;;7.30;88.15
17615;BME280;8926;49.720;6.576;2023-02-02T01:33:37;100507.66;;;7.28;89.07
17615;BME280;8926;49.720;6.576;2023-02-02T01:36:05;100514.56;;;7.29;88.54
17615;BME280;8926;49.720;6.576;2023-02-02T01:38:32;100517.97;;;7.31;88.21
17615;BME280;8926;49.720;6.576;2023-02-02T01:40:58;100517.97;;;7.31;88.45
17615;BME280;8926;49.720;6.576;2023-02-02T01:43:30;100515.34;;;7.33;88.92
17615;BME280;8926;49.720;6.576;2023-02-02T01:45:57;100512.69;;;7.34;88.60
17615;BME280;8926;49.720;6.576;2023-02-02T01:48:52;100515.25;;;7.36;88.50
17615;BME280;8926;49.720;6.576;2023-02-02T01:51:23;100510.91;;;7.36;88.51
17615;BME280;8926;49.720;6.576;2023-02-02T01:53:53;100513.50;;;7.36;88.50
17615;BME280;8926;49.720;6.576;2023-02-02T01:56:28;100509.19;;;7.35;88.32
17615;BME280;8926;49.720;6.576;2023-02-02T01:58:55;100506.53;;;7.37;88.48
17615;BME280;8926;49.720;6.576;2023-02-02T02:01:21;100511.88;;;7.32;88.60
17615;BME280;8926;49.720;6.576;2023-02-02T02:03:46;100511.06;;;7.30;88.70
17615;BME280;8926;49.720;6.576;2023-02-02T02:06:15;100512.88;;;7.28;89.05
17615;BME280;8926;49.720;6.576;2023-02-02T02:08:49;100516.28;;;7.30;89.16
17615;BME280;8926;49.720;6.576;2023-02-02T02:11:19;100509.19;;;7.35;88.60
17615;BME280;8926;49.720;6.576;2023-02-02T02:13:45;100512.69;;;7.34;88.72
17615;BME280;8926;49.720;6.576;2023-02-02T02:17:11;100512.72;;;7.33;89.02
17615;BME280;8926;49.720;6.576;2023-02-02T02:34:11;100523.03;;;7.36;88.99
17615;BME280;8926;49.720;6.576;2023-02-02T02:36:50;100524.78;;;7.35;88.97
17615;BME280;8926;49.720;6.576;2023-02-02T02:39:31;100523.78;;;7.39;88.92
17615;BME280;8926;49.720;6.576;2023-02-02T02:42:07;100519.50;;;7.38;88.72
17615;BME280;8926;49.720;6.576;2023-02-02T02:44:34;100511.84;;;7.34;89.07
17615;BME280;8926;49.720;6.576;2023-02-02T02:47:00;100520.53;;;7.33;89.38
17615;BME280;8926;49.720;6.576;2023-02-02T02:49:26;100517.88;;;7.34;89.61
17615;BME280;8926;49.720;6.576;2023-02-02T02:51:53;100519.50;;;7.38;88.58
17615;BME280;8926;49.720;6.576;2023-02-02T02:54:26;100521.28;;;7.36;89.68
17615;BME280;8926;49.720;6.576;2023-02-02T03:02:34;100519.31;;;7.44;88.51
17615;BME280;8926;49.720;6.576;2023-02-02T03:05:30;100510.72;;;7.42;88.16
17615;BME280;8926;49.720;6.576;2023-02-02T03:08:12;100503.81;;;7.41;88.65
17615;BME280;8926;49.720;6.576;2023-02-02T03:10:41;100509.09;;;7.38;88.73
17615;BME280;8926;49.720;6.576;2023-02-02T03:13:09;100495.47;;;7.30;88.96
17615;BME280;8926;49.720;6.576;2023-02-02T03:15:35;100504.19;;;7.29;89.25
17615;BME280;8926;49.720;6.576;2023-02-02T03:18:00;100498.97;;;7.29;89.31
17615;BME280;8926;49.720;6.576;2023-02-02T03:20:26;100502.38;;;7.31;88.87
17615;BME280;8926;49.720;6.576;2023-02-02T03:22:51;100500.69;;;7.30;88.92
17615;BME280;8926;49.720;6.576;2023-02-02T03:25:16;100502.38;;;7.31;88.83
17615;BME280;8926;49.720;6.576;2023-02-02T03:27:43;100498.94;;;7.31;88.88
17615;BME280;8926;49.720;6.576;2023-02-02T03:30:10;100492.78;;;7.33;88.69
17615;BME280;8926;49.720;6.576;2023-02-02T03:32:37;100497.19;;;7.31;88.96
17615;BME280;8926;49.720;6.576;2023-02-02T03:35:03;100495.47;;;7.30;88.61
17615;BME280;8926;49.720;6.576;2023-02-02T03:37:28;100505.84;;;7.32;89.25
17615;BME280;8926;49.720;6.576;2023-02-02T03:39:53;100502.28;;;7.34;89.44
17615;BME280;8926;49.720;6.576;2023-02-02T03:42:19;100514.28;;;7.38;88.98
17615;BME280;8926;49.720;6.576;2023-02-02T03:44:44;100512.50;;;7.40;88.71
17615;BME280;8926;49.720;6.576;2023-02-02T03:47:09;100519.41;;;7.41;88.92
17615;BME280;8926;49.720;6.576;2023-02-02T03:49:34;100517.50;;;7.46;88.64
17615;BME280;8926;49.720;6.576;2023-02-02T03:52:00;100513.25;;;7.44;88.52
17615;BME280;8926;49.720;6.576;2023-02-02T03:54:28;100520.03;;;7.49;87.43
17615;BME280;8926;49.720;6.576;2023-02-02T03:56:53;100517.47;;;7.48;87.32
17615;BME280;8926;49.720;6.576;2023-02-02T03:59:19;100522.72;;;7.46;87.29
17615;BME280;8926;49.720;6.576;2023-02-02T04:01:44;100515.81;;;7.45;87.54
17615;BME280;8926;49.720;6.576;2023-02-02T04:04:09;100511.50;;;7.44;87.88
17615;BME280;8926;49.720;6.576;2023-02-02T04:06:35;100521.19;;;7.39;87.84
17615;BME280;8926;49.720;6.576;2023-02-02T04:09:00;100519.50;;;7.38;87.84
17615;BME280;8926;49.720;6.576;2023-02-02T04:11:25;100528.09;;;7.40;88.24
17615;BME280;8926;49.720;6.576;2023-02-02T04:13:51;100519.31;;;7.44;87.69
17615;BME280;8926;49.720;6.576;2023-02-02T04:16:16;100528.84;;;7.44;87.94
17615;BME280;8926;49.720;6.576;2023-02-02T04:18:41;100528.09;;;7.40;88.02
17615;BME280;8926;49.720;6.576;2023-02-02T04:21:07;100516.84;;;7.40;87.95
17615;BME280;8926;49.720;6.576;2023-02-02T04:23:33;100518.56;;;7.41;87.72
17615;BME280;8926;49.720;6.576;2023-02-02T04:25:59;100522.91;;;7.40;87.76
17615;BME280;8926;49.720;6.576;2023-02-02T04:28:25;100519.41;;;7.41;87.69
17615;BME280;8926;49.720;6.576;2023-02-02T04:30:52;100511.75;;;7.37;87.59
17615;BME280;8926;49.720;6.576;2023-02-02T04:33:18;100510.09;;;7.34;88.35
17615;BME280;8926;49.720;6.576;2023-02-02T04:35:43;100509.19;;;7.35;88.46
17615;BME280;8926;49.720;6.576;2023-02-02T04:38:09;100519.44;;;7.40;87.68
17615;BME280;8926;49.720;6.576;2023-02-02T04:40:43;100516.91;;;7.38;87.96
17615;BME280;8926;49.720;6.576;2023-02-02T04:43:09;100524.69;;;7.38;87.86
17615;BME280;8926;49.720;6.576;2023-02-02T04:45:34;100529.88;;;7.38;88.14
17615;BME280;8926;49.720;6.576;2023-02-02T04:48:00;100536.78;;;7.39;88.10
17615;BME280;8926;49.720;6.576;2023-02-02T04:50:25;100530.75;;;7.39;88.31
17615;BME280;8926;49.720;6.576;2023-02-02T04:52:50;100533.28;;;7.40;87.95
17615;BME280;8926;49.720;6.576;2023-02-02T04:55:16;100541.00;;;7.43;87.54
17615;BME280;8926;49.720;6.576;2023-02-02T04:57:41;100537.63;;;7.40;87.29
17615;BME280;8926;49.720;6.576;2023-02-02T05:00:08;100545.50;;;7.38;87.68
17615;BME280;8926;49.720;6.576;2023-02-02T05:02:36;100550.59;;;7.41;87.54
17615;BME280;8926;49.720;6.576;2023-02-02T05:05:01;100553.19;;;7.41;87.71
17615;BME280;8926;49.720;6.576;2023-02-02T05:07:27;100553.09;;;7.44;87.35
17615;BME280;8926;49.720;6.576;2023-02-02T05:09:52;100562.69;;;7.42;87.51
17615;BME280;8926;49.720;6.576;2023-02-02T05:12:17;100557.50;;;7.42;87.23
17615;BME280;8926;49.720;6.576;2023-02-02T05:14:43;100562.69;;;7.42;87.08
17615;BME280;8926;49.720;6.576;2023-02-02T05:17:08;100564.41;;;7.43;87.07
17615;BME280;8926;49.720;6.576;2023-02-02T05:19:33;100557.50;;;7.42;87.47
17615;BME280;8926;49.720;6.576;2023-02-02T05:21:58;100559.19;;;7.43;87.00
17615;BME280;8926;49.720;6.576;2023-02-02T05:24:24;100567.91;;;7.42;87.26
17615;BME280;8926;49.720;6.576;2023-02-02T05:26:49;100557.59;;;7.39;87.77
17615;BME280;8926;49.720;6.576;2023-02-02T05:29:14;100562.69;;;7.42;87.16
17615;BME280;8926;49.720;6.576;2023-02-02T05:31:40;100564.41;;;7.43;87.06
17615;BME280;8926;49.720;6.576;2023-02-02T05:34:05;100570.53;;;7.41;87.13
17615;BME280;8926;49.720;6.576;2023-02-02T05:36:31;100573.09;;;7.42;87.32
17615;BME280;8926;49.720;6.576;2023-02-02T05:38:56;100578.28;;;7.42;87.06
17615;BME280;8926;49.720;6.576;2023-02-02T05:41:21;100580.81;;;7.45;87.37
17615;BME280;8926;49.720;6.576;2023-02-02T05:43:47;100585.19;;;7.43;86.88
17615;BME280;8926;49.720;6.576;2023-02-02T05:46:12;100576.41;;;7.47;86.94
17615;BME280;8926;49.720;6.576;2023-02-02T05:48:37;100585.09;;;7.46;86.54
17615;BME280;8926;49.720;6.576;2023-02-02T05:51:09;100591.91;;;7.51;86.24
17615;BME280;8926;49.720;6.576;2023-02-02T05:53:36;100595.41;;;7.49;86.21
17615;BME280;8926;49.720;6.576;2023-02-02T05:56:01;100604.16;;;7.47;86.10
17615;BME280;8926;49.720;6.576;2023-02-02T05:58:26;100604.19;;;7.45;86.54
17615;BME280;8926;49.720;6.576;2023-02-02T06:00:52;100602.31;;;7.51;86.35
17615;BME280;8926;49.720;6.576;2023-02-02T06:03:17;100597.13;;;7.51;86.24
17615;BME280;8926;49.720;6.576;2023-02-02T06:05:43;100594.50;;;7.51;86.58
17615;BME280;8926;49.720;6.576;2023-02-02T06:08:08;100592.00;;;7.47;86.66
17615;BME280;8926;49.720;6.576;2023-02-02T06:10:33;100592.94;;;7.45;86.79
17615;BME280;8926;49.720;6.576;2023-02-02T06:12:58;100599.00;;;7.45;86.85
17615;BME280;8926;49.720;6.576;2023-02-02T06:15:24;100598.28;;;7.40;87.34
17615;BME280;8926;49.720;6.576;2023-02-02T06:17:54;100597.38;;;7.41;88.27
17615;BME280;8926;49.720;6.576;2023-02-02T06:20:23;100597.28;;;7.44;88.21
17615;BME280;8926;49.720;6.576;2023-02-02T06:22:48;100600.66;;;7.48;87.43
17615;BME280;8926;49.720;6.576;2023-02-02T06:25:13;100600.69;;;7.46;87.30
17615;BME280;8926;49.720;6.576;2023-02-02T06:27:38;100597.13;;;7.51;86.72
17615;BME280;8926;49.720;6.576;2023-02-02T06:30:04;100603.13;;;7.53;86.39
17615;BME280;8926;49.720;6.576;2023-02-02T06:32:29;100604.09;;;7.48;87.07
17615;BME280;8926;49.720;6.576;2023-02-02T06:34:55;100596.25;;;7.50;86.54
17615;BME280;8926;49.720;6.576;2023-02-02T06:37:20;100598.00;;;7.49;87.01
17615;BME280;8926;49.720;6.576;2023-02-02T06:39:45;100599.66;;;7.52;86.58
17615;BME280;8926;49.720;6.576;2023-02-02T06:42:11;100617.91;;;7.51;86.94
17615;BME280;8926;49.720;6.576;2023-02-02T06:44:36;100610.91;;;7.53;87.20
17615;BME280;8926;49.720;6.576;2023-02-02T06:47:01;100603.91;;;7.55;86.93
17615;BME280;8926;49.720;6.576;2023-02-02T06:49:27;100604.66;;;7.58;86.51
17615;BME280;8926;49.720;6.576;2023-02-02T06:51:52;100592.56;;;7.57;86.03
17615;BME280;8926;49.720;6.576;2023-02-02T06:54:17;100584.63;;;7.62;85.82
17615;BME280;8926;49.720;6.576;2023-02-02T06:56:42;100579.41;;;7.62;85.54
17615;BME280;8926;49.720;6.576;2023-02-02T06:59:08;100593.41;;;7.58;85.88
17615;BME280;8926;49.720;6.576;2023-02-02T07:01:33;100579.59;;;7.56;85.92
17615;BME280;8926;49.720;6.576;2023-02-02T07:03:58;100579.50;;;7.59;85.89
17615;BME280;8926;49.720;6.576;2023-02-02T07:06:26;100596.81;;;7.60;85.81
17615;BME280;8926;49.720;6.576;2023-02-02T07:08:52;100590.66;;;7.62;85.28
17615;BME280;8926;49.720;6.576;2023-02-02T07:11:18;100595.91;;;7.61;85.04
17615;BME280;8926;49.720;6.576;2023-02-02T07:13:47;100593.38;;;7.59;85.46
17615;BME280;8926;49.720;6.576;2023-02-02T07:16:13;100591.53;;;7.63;85.47
17615;BME280;8926;49.720;6.576;2023-02-02T07:18:39;100601.84;;;7.66;85.47
17615;BME280;8926;49.720;6.576;2023-02-02T07:21:05;100607.88;;;7.66;85.39
17615;BME280;8926;49.720;6.576;2023-02-02T07:23:32;100613.09;;;7.66;85.42
17615;BME280;8926;49.720;6.576;2023-02-02T07:26:05;100620.84;;;7.68;85.75
17615;BME280;8926;49.720;6.576;2023-02-02T07:28:31;100624.34;;;7.67;85.72
17615;BME280;8926;49.720;6.576;2023-02-02T07:30:57;100638.16;;;7.69;84.93
17615;BME280;8926;49.720;6.576;2023-02-02T07:33:22;100638.16;;;7.69;84.59
17615;BME280;8926;49.720;6.576;2023-02-02T07:35:48;100645.84;;;7.72;84.63
17615;BME280;8926;49.720;6.576;2023-02-02T07:38:13;100657.06;;;7.74;84.26
17615;BME280;8926;49.720;6.576;2023-02-02T07:40:38;100658.69;;;7.78;83.90
17615;BME280;8926;49.720;6.576;2023-02-02T07:43:03;100662.28;;;7.74;83.72
17615;BME280;8926;49.720;6.576;2023-02-02T07:45:29;100652.72;;;7.74;83.75
17615;BME280;8926;49.720;6.576;2023-02-02T07:47:59;100661.38;;;7.75;83.72
17615;BME280;8926;49.720;6.576;2023-02-02T07:50:25;100668.13;;;7.80;83.42
17615;BME280;8926;49.720;6.576;2023-02-02T07:52:51;100678.63;;;7.77;83.57
17615;BME280;8926;49.720;6.576;2023-02-02T07:55:17;100662.06;;;7.80;83.40
17615;BME280;8926;49.720;6.576;2023-02-02T07:57:42;100659.47;;;7.80;83.55
17615;BME280;8926;49.720;6.576;2023-02-02T08:00:08;100660.38;;;7.79;82.89
17615;BME280;8926;49.720;6.576;2023-02-02T08:02:34;100661.31;;;7.76;83.08
17615;BME280;8926;49.720;6.576;2023-02-02T08:04:59;100669.09;;;7.78;82.67
17615;BME280;8926;49.720;6.576;2023-02-02T08:07:25;100660.38;;;7.79;83.26
17615;BME280;8926;49.720;6.576;2023-02-02T08:09:50;100671.53;;;7.82;82.59
17615;BME280;8926;49.720;6.576;2023-02-02T08:12:16;100668.97;;;7.81;83.25
17615;BME280;8926;49.720;6.576;2023-02-02T08:14:42;100671.53;;;7.82;82.67
17615;BME280;8926;49.720;6.576;2023-02-02T08:17:07;100663.75;;;7.81;83.06
17615;BME280;8926;49.720;6.576;2023-02-02T08:19:32;100665.25;;;7.90;82.42
17615;BME280;8926;49.720;6.576;2023-02-02T08:21:58;100670.31;;;7.94;82.76
17615;BME280;8926;49.720;6.576;2023-02-02T08:24:23;100671.81;;;8.01;82.23
17615;BME280;8926;49.720;6.576;2023-02-02T08:26:49;100672.69;;;8.02;82.48
17615;BME280;8926;49.720;6.576;2023-02-02T08:29:14;100671.66;;;8.06;82.42
17615;BME280;8926;49.720;6.576;2023-02-02T08:31:42;100666.41;;;8.07;81.51
17615;BME280;8926;49.720;6.576;2023-02-02T08:34:09;100666.72;;;7.98;82.43
17615;BME280;8926;49.720;6.576;2023-02-02T08:36:35;100670.31;;;7.94;82.51
17615;BME280;8926;49.720;6.576;2023-02-02T08:39:02;100675.56;;;7.93;83.42
17615;BME280;8926;49.720;6.576;2023-02-02T08:41:27;100676.44;;;7.92;83.50
17615;BME280;8926;49.720;6.576;2023-02-02T08:43:53;100679.19;;;7.87;83.72
17615;BME280;8926;49.720;6.576;2023-02-02T08:46:19;100689.59;;;7.87;83.66
17615;BME280;8926;49.720;6.576;2023-02-02T08:48:45;100688.59;;;7.91;83.56
17615;BME280;8926;49.720;6.576;2023-02-02T08:51:12;100683.44;;;7.90;83.88
17615;BME280;8926;49.720;6.576;2023-02-02T08:53:39;100684.31;;;7.90;84.53
17615;BME280;8926;49.720;6.576;2023-02-02T08:56:08;100683.31;;;7.94;83.56
17615;BME280;8926;49.720;6.576;2023-02-02T08:58:33;100690.22;;;7.95;83.48
17615;BME280;8926;49.720;6.576;2023-02-02T09:01:07;100687.63;;;7.95;83.32
17615;BME280;8926;49.720;6.576;2023-02-02T09:03:33;100687.53;;;7.98;83.53
17615;BME280;8926;49.720;6.576;2023-02-02T09:06:06;100681.28;;;8.04;83.58
17615;BME280;8926;49.720;6.576;2023-02-02T09:08:39;100685.44;;;8.09;82.83
17615;BME280;8926;49.720;6.576;2023-02-02T09:11:06;100698.16;;;8.18;83.29
17615;BME280;8926;49.720;6.576;2023-02-02T09:13:33;100702.38;;;8.23;83.00
17615;BME280;8926;49.720;6.576;2023-02-02T09:16:00;100704.16;;;8.21;81.97
17615;BME280;8926;49.720;6.576;2023-02-02T09:18:25;100711.09;;;8.22;81.87
17615;BME280;8926;49.720;6.576;2023-02-02T09:20:50;100710.22;;;8.21;81.97
17615;BME280;8926;49.720;6.576;2023-02-02T09:23:16;100709.47;;;8.17;81.68
17615;BME280;8926;49.720;6.576;2023-02-02T09:25:41;100715.47;;;8.20;81.77
17615;BME280;8926;49.720;6.576;2023-02-02T09:28:09;100710.31;;;8.18;81.72
17615;BME280;8926;49.720;6.576;2023-02-02T09:30:34;100716.44;;;8.17;81.82
17615;BME280;8926;49.720;6.576;2023-02-02T09:33:00;100718.97;;;8.18;81.81
17615;BME280;8926;49.720;6.576;2023-02-02T09:35:25;100726.06;;;8.13;81.71
17615;BME280;8926;49.720;6.576;2023-02-02T09:37:50;100735.50;;;8.17;82.03
17615;BME280;8926;49.720;6.576;2023-02-02T09:40:17;100740.69;;;8.17;82.01
17615;BME280;8926;49.720;6.576;2023-02-02T09:46:12;100748.66;;;8.13;81.66
17615;BME280;8926;49.720;6.576;2023-02-02T09:48:51;100748.69;;;8.11;81.84
17615;BME280;8926;49.720;6.576;2023-02-02T09:51:22;100737.38;;;8.12;81.71
17615;BME280;8926;49.720;6.576;2023-02-02T09:54:04;100728.78;;;8.10;81.80
17615;BME280;8926;49.720;6.576;2023-02-02T09:56:39;100722.56;;;8.14;81.41
17615;BME280;8926;49.720;6.576;2023-02-02T09:59:12;100725.13;;;8.16;81.36
17615;BME280;8926;49.720;6.576;2023-02-02T10:01:41;100742.31;;;8.22;82.22
17615;BME280;8926;49.720;6.576;2023-02-02T10:04:20;100737.81;;;8.27;81.46
17615;BME280;8926;49.720;6.576;2023-02-02T10:06:50;100741.94;;;8.34;81.01
17615;BME280;8926;49.720;6.576;2023-02-02T10:09:29;100732.72;;;8.52;80.50
17615;BME280;8926;49.720;6.576;2023-02-02T10:14:27;100743.97;;;8.78;79.50
17615;BME280;8926;49.720;6.576;2023-02-02T10:16:55;100742.56;;;8.95;79.90
17615;BME280;8926;49.720;6.576;2023-02-02T10:19:23;100740.59;;;9.01;78.58
17615;BME280;8926;49.720;6.576;2023-02-02T10:21:59;100740.69;;;8.98;78.72
17615;BME280;8926;49.720;6.576;2023-02-02T10:24:28;100757.38;;;8.93;79.49
17615;BME280;8926;49.720;6.576;2023-02-02T10:27:23;100762.41;;;8.99;78.82
17615;BME280;8926;49.720;6.576;2023-02-02T10:29:59;100761.97;;;9.11;78.87
17615;BME280;8926;49.720;6.576;2023-02-02T10:35:26;100784.00;;;9.02;79.08
17615;BME280;8926;49.720;6.576;2023-02-02T10:37:59;100777.97;;;9.00;79.45
17615;BME280;8926;49.720;6.576;2023-02-02T10:46:13;100789.97;;;9.06;79.03
17615;BME280;8926;49.720;6.576;2023-02-02T10:48:42;100783.84;;;9.07;79.40
17615;BME280;8926;49.720;6.576;2023-02-02T10:51:28;100777.72;;;9.08;79.26
17615;BME280;8926;49.720;6.576;2023-02-02T10:53:56;100788.16;;;9.08;78.99
17615;BME280;8926;49.720;6.576;2023-02-02T10:56:44;100796.03;;;9.06;79.08
17615;BME280;8926;49.720;6.576;2023-02-02T10:59:23;100799.63;;;9.02;79.73
17615;BME280;8926;49.720;6.576;2023-02-02T11:01:51;100802.50;;;8.95;79.93
17615;BME280;8926;49.720;6.576;2023-02-02T11:04:17;100809.69;;;8.87;79.98
17615;BME280;8926;49.720;6.576;2023-02-02T11:07:02;100810.53;;;8.87;80.19
17615;BME280;8926;49.720;6.576;2023-02-02T11:09:36;100810.41;;;8.92;79.79
17615;BME280;8926;49.720;6.576;2023-02-02T11:12:10;100800.78;;;8.94;79.09
17615;BME280;8926;49.720;6.576;2023-02-02T11:17:39;100794.91;;;8.87;79.37
17615;BME280;8926;49.720;6.576;2023-02-02T11:20:22;100784.53;;;8.85;79.71
17615;BME280;8926;49.720;6.576;2023-02-02T11:22:58;100794.81;;;8.90;79.48
17615;BME280;8926;49.720;6.576;2023-02-02T11:25:30;100787.06;;;8.89;79.21
17615;BME280;8926;49.720;6.576;2023-02-02T11:27:59;100786.19;;;8.88;79.95
17615;BME280;8926;49.720;6.576;2023-02-02T11:30:33;100787.81;;;8.92;79.07
17615;BME280;8926;49.720;6.576;2023-02-02T11:33:39;100793.00;;;8.92;79.50
17615;BME280;8926;49.720;6.576;2023-02-02T11:36:19;100776.53;;;8.92;78.56
17615;BME280;8926;49.720;6.576;2023-02-02T11:38:45;100785.25;;;8.91;78.91
17615;BME280;8926;49.720;6.576;2023-02-02T11:41:10;100780.13;;;8.88;78.52
17615;BME280;8926;49.720;6.576;2023-02-02T11:43:49;100777.47;;;8.89;79.10
17615;BME280;8926;49.720;6.576;2023-02-02T11:46:19;100778.22;;;8.93;78.58
17615;BME280;8926;49.720;6.576;2023-02-02T11:49:06;100776.63;;;8.89;78.14
17615;BME280;8926;49.720;6.576;2023-02-02T11:51:37;100772.16;;;8.92;78.57
17615;BME280;8926;49.720;6.576;2023-02-02T11:54:15;100768.72;;;8.92;78.06
17615;BME280;8926;49.720;6.576;2023-02-02T11:56:41;100766.00;;;8.95;77.76
17615;BME280;8926;49.720;6.576;2023-02-02T12:04:37;100768.03;;;9.11;76.90
17615;BME280;8926;49.720;6.576;2023-02-02T12:07:23;100774.00;;;9.15;77.26
17615;BME280;8926;49.720;6.576;2023-02-02T12:09:49;100772.09;;;9.20;77.15
17615;BME280;8926;49.720;6.576;2023-02-02T12:12:27;100762.34;;;9.25;77.30
17615;BME280;8926;49.720;6.576;2023-02-02T12:17:40;100752.50;;;9.33;76.20
17615;BME280;8926;49.720;6.576;2023-02-02T12:20:10;100751.78;;;9.30;76.75
17615;BME280;8926;49.720;6.576;2023-02-02T12:30:58;100743.69;;;9.61;76.85
17615;BME280;8926;49.720;6.576;2023-02-02T12:38:57;100749.63;;;9.87;74.98
17615;BME280;8926;49.720;6.576;2023-02-02T12:42:21;100747.09;;;9.86;74.26
17615;BME280;8926;49.720;6.576;2023-02-02T12:45:07;100748.91;;;9.84;74.64
17615;BME280;8926;49.720;6.576;2023-02-02T12:47:51;100745.66;;;9.77;74.16
17615;BME280;8926;49.720;6.576;2023-02-02T12:56:21;100746.75;;;9.72;74.78
17615;BME280;8926;49.720;6.576;2023-02-02T12:59:17;100729.50;;;9.68;74.85
17615;BME280;8926;49.720;6.576;2023-02-02T13:02:21;100730.41;;;9.67;74.52
17615;BME280;8926;49.720;6.576;2023-02-02T13:05:22;100726.03;;;9.67;74.26
17615;BME280;8926;49.720;6.576;2023-02-02T13:08:07;100728.59;;;9.69;74.49
17615;BME280;8926;49.720;6.576;2023-02-02T13:10:37;100726.44;;;9.80;73.71
17615;BME280;8926;49.720;6.576;2023-02-02T13:13:15;100731.44;;;9.86;74.08
17615;BME280;8926;49.720;6.576;2023-02-02T13:15:46;100739.81;;;9.94;73.71
17615;BME280;8926;49.720;6.576;2023-02-02T13:18:23;100722.22;;;9.99;73.12
17615;BME280;8926;49.720;6.576;2023-02-02T13:20:53;100721.97;;;10.05;73.43
17615;BME280;8926;49.720;6.576;2023-02-02T13:23:42;100720.03;;;10.10;72.41
17615;BME280;8926;49.720;6.576;2023-02-02T13:26:14;100711.38;;;10.32;71.83
17615;BME280;8926;49.720;6.576;2023-02-02T13:31:27;100710.53;;;10.73;70.51
17615;BME280;8926;49.720;6.576;2023-02-02T13:34:04;100714.06;;;10.72;70.78
17615;BME280;8926;49.720;6.576;2023-02-02T13:36:38;100719.75;;;10.62;71.05
17615;BME280;8926;49.720;6.576;2023-02-02T13:39:14;100713.00;;;10.56;70.89
17615;BME280;8926;49.720;6.576;2023-02-02T13:41:42;100715.31;;;10.42;71.15
17615;BME280;8926;49.720;6.576;2023-02-02T13:44:15;100719.16;;;10.33;71.32
17615;BME280;8926;49.720;6.576;2023-02-02T13:46:58;100721.34;;;10.22;71.48
17615;BME280;8926;49.720;6.576;2023-02-02T13:49:30;100726.06;;;10.12;71.88
17615;BME280;8926;49.720;6.576;2023-02-02T13:52:08;100726.97;;;10.11;72.17
17615;BME280;8926;49.720;6.576;2023-02-02T13:58:04;100725.63;;;10.01;72.03
17615;BME280;8926;49.720;6.576;2023-02-02T14:00:41;100731.75;;;10.00;71.75
17615;BME280;8926;49.720;6.576;2023-02-02T14:03:31;100746.84;;;9.92;72.08
17615;BME280;8926;49.720;6.576;2023-02-02T14:06:14;100752.16;;;9.89;71.70
17615;BME280;8926;49.720;6.576;2023-02-02T14:11:18;100762.88;;;9.83;71.73
17615;BME280;8926;49.720;6.576;2023-02-02T14:13:50;100755.94;;;9.82;71.84
17615;BME280;8926;49.720;6.576;2023-02-02T14:19:04;100765.00;;;9.72;72.09
17615;BME280;8926;49.720;6.576;2023-02-02T14:34:43;100783.41;;;9.44;73.20
17615;BME280;8926;49.720;6.576;2023-02-02T14:42:40;100780.59;;;9.25;74.52
17615;BME280;8926;49.720;6.576;2023-02-02T14:45:29;100789.22;;;9.27;74.41
17615;BME280;8926;49.720;6.576;2023-02-02T14:47:59;100792.94;;;9.20;74.69
17615;BME280;8926;49.720;6.576;2023-02-02T14:58:35;100797.69;;;9.09;75.46
17615;BME280;8926;49.720;6.576;2023-02-02T15:01:22;100804.00;;;9.02;75.30
17615;BME280;8926;49.720;6.576;2023-02-02T15:06:40;100815.31;;;9.01;75.29
17615;BME280;8926;49.720;6.576;2023-02-02T15:20:12;100827.03;;;8.88;76.25